createdAt,value
2019-02-08T00:00:58.669Z,3.80
2019-02-08T00:03:26.293Z,3.80
2019-02-08T00:05:53.538Z,3.90
2019-02-08T00:08:21.157Z,3.80
2019-02-08T00:10:48.475Z,3.80
2019-02-08T00:13:15.806Z,3.90
2019-02-08T00:15:43.131Z,3.90
2019-02-08T00:18:11.168Z,3.90
2019-02-08T00:20:38.669Z,3.80
2019-02-08T00:23:06.098Z,3.90
2019-02-08T00:25:33.328Z,4.00
2019-02-08T00:28:00.653Z,3.90
2019-02-08T00:30:28.199Z,3.90
2019-02-08T00:32:55.420Z,3.80
2019-02-08T00:35:23.171Z,3.90
2019-02-08T00:37:50.800Z,4.10
2019-02-08T00:40:18.655Z,4.20
2019-02-08T00:42:45.879Z,4.10
2019-02-08T00:45:15.195Z,4.10
2019-02-08T00:47:42.534Z,4.10
2019-02-08T00:50:13.315Z,4.00
2019-02-08T00:52:40.548Z,4.10
2019-02-08T00:55:08.747Z,4.00
2019-02-08T00:57:35.981Z,4.00
2019-02-08T01:00:05.948Z,4.00
2019-02-08T01:02:33.579Z,4.00
2019-02-08T01:05:00.897Z,4.00
2019-02-08T01:07:28.132Z,4.10
2019-02-08T01:09:55.979Z,4.10
2019-02-08T01:12:23.203Z,4.00
2019-02-08T01:14:50.540Z,4.10
2019-02-08T01:17:17.791Z,4.10
2019-02-08T01:19:45.025Z,4.00
2019-02-08T01:22:12.480Z,4.00
2019-02-08T01:24:39.713Z,3.80
2019-02-08T01:27:06.961Z,3.80
2019-02-08T01:29:34.192Z,3.70
2019-02-08T01:32:01.444Z,3.60
2019-02-08T01:34:28.671Z,3.70
2019-02-08T01:36:55.928Z,3.70
2019-02-08T01:39:23.161Z,3.90
2019-02-08T01:41:50.425Z,4.00
2019-02-08T01:44:17.644Z,4.10
2019-02-08T01:46:44.984Z,4.20
2019-02-08T01:49:12.254Z,4.20
2019-02-08T01:51:39.783Z,4.20
2019-02-08T01:54:07.020Z,4.20
2019-02-08T01:56:34.276Z,4.20
2019-02-08T01:59:01.511Z,4.20
2019-02-08T02:01:28.763Z,4.10
2019-02-08T02:03:56.052Z,4.10
2019-02-08T02:06:23.316Z,4.10
2019-02-08T02:08:50.541Z,4.10
2019-02-08T02:11:17.894Z,4.20
2019-02-08T02:13:45.120Z,4.20
2019-02-08T02:16:12.736Z,4.20
2019-02-08T02:18:39.972Z,4.20
2019-02-08T02:21:07.519Z,4.30
2019-02-08T02:23:34.748Z,4.20
2019-02-08T02:26:02.379Z,4.20
2019-02-08T02:28:29.967Z,4.20
2019-02-08T02:30:57.233Z,4.30
2019-02-08T02:33:24.803Z,4.20
2019-02-08T02:35:52.074Z,4.20
2019-02-08T02:38:19.387Z,4.20
2019-02-08T02:40:46.654Z,4.30
2019-02-08T02:43:13.971Z,4.30
2019-02-08T02:45:42.024Z,4.20
2019-02-08T02:48:11.951Z,4.20
2019-02-08T02:50:39.204Z,4.30
2019-02-08T02:53:06.456Z,4.30
2019-02-08T02:55:33.788Z,4.30
2019-02-08T02:58:01.010Z,4.20
2019-02-08T03:00:31.799Z,4.30
2019-02-08T03:02:59.294Z,4.30
2019-02-08T03:05:26.568Z,4.30
2019-02-08T03:07:53.891Z,4.30
2019-02-08T03:10:21.978Z,4.40
2019-02-08T03:12:49.206Z,4.40
2019-02-08T03:15:18.988Z,4.30
2019-02-08T03:17:46.906Z,4.20
2019-02-08T03:20:15.647Z,4.20
2019-02-08T03:22:42.896Z,4.20
2019-02-08T03:25:11.892Z,4.20
2019-02-08T03:27:39.512Z,4.20
2019-02-08T03:30:09.583Z,4.40
2019-02-08T03:32:36.916Z,4.40
2019-02-08T03:35:06.124Z,4.40
2019-02-08T03:37:33.456Z,4.30
2019-02-08T03:40:00.578Z,4.30
2019-02-08T03:42:28.356Z,4.40
2019-02-08T03:44:55.668Z,4.50
2019-02-08T03:47:22.928Z,4.50
2019-02-08T03:49:50.148Z,4.50
2019-02-08T03:52:17.409Z,4.50
2019-02-08T03:54:44.632Z,4.50
2019-02-08T03:57:11.900Z,4.40
2019-02-08T03:59:39.414Z,4.50
2019-02-08T04:02:06.763Z,4.40
2019-02-08T04:04:34.119Z,4.40
2019-02-08T04:07:01.371Z,4.50
2019-02-08T04:09:28.911Z,4.50
2019-02-08T04:11:56.160Z,4.50
2019-02-08T04:14:23.391Z,4.60
2019-02-08T04:16:51.004Z,4.50
2019-02-08T04:19:18.243Z,4.60
2019-02-08T04:21:45.498Z,4.50
2019-02-08T04:24:13.147Z,4.50
2019-02-08T04:26:41.016Z,4.50
2019-02-08T04:29:08.237Z,4.50
2019-02-08T04:31:35.492Z,4.50
2019-02-08T04:34:03.209Z,4.50
2019-02-08T04:36:30.447Z,4.40
2019-02-08T04:38:57.689Z,4.60
2019-02-08T04:41:24.939Z,4.60
2019-02-08T04:43:52.178Z,4.60
2019-02-08T04:46:19.419Z,4.50
2019-02-08T04:48:46.643Z,4.50
2019-02-08T04:51:13.979Z,4.50
2019-02-08T04:53:41.514Z,4.50
2019-02-08T04:56:08.735Z,4.50
2019-02-08T04:58:36.009Z,4.40
2019-02-08T05:01:03.611Z,4.40
2019-02-08T05:03:30.933Z,4.50
2019-02-08T05:05:58.163Z,4.60
2019-02-08T05:08:25.401Z,4.60
2019-02-08T05:10:52.632Z,4.60
2019-02-08T05:13:19.855Z,4.60
2019-02-08T05:15:47.085Z,4.60
2019-02-08T05:18:14.311Z,4.70
2019-02-08T05:20:41.543Z,4.60
2019-02-08T05:23:08.771Z,4.60
2019-02-08T05:25:36.000Z,4.60
2019-02-08T05:28:03.616Z,4.70
2019-02-08T05:30:33.295Z,4.80
2019-02-08T05:33:00.729Z,4.70
2019-02-08T05:35:28.355Z,4.70
2019-02-08T05:37:55.619Z,4.70
2019-02-08T05:40:22.944Z,4.70
2019-02-08T05:42:50.191Z,4.60
2019-02-08T05:45:17.844Z,4.60
2019-02-08T05:47:45.093Z,4.60
2019-02-08T05:50:15.209Z,4.60
2019-02-08T05:52:42.455Z,4.70
2019-02-08T05:55:11.145Z,4.70
2019-02-08T05:57:38.415Z,4.60
2019-02-08T06:00:14.678Z,4.60
2019-02-08T06:02:42.074Z,4.60
2019-02-08T06:05:10.808Z,4.60
2019-02-08T06:07:38.161Z,4.60
2019-02-08T06:10:07.600Z,4.60
2019-02-08T06:12:34.863Z,4.70
2019-02-08T06:15:02.150Z,4.70
2019-02-08T06:17:29.768Z,4.70
2019-02-08T06:19:56.995Z,4.70
2019-02-08T06:22:24.239Z,4.70
2019-02-08T06:24:51.463Z,4.60
2019-02-08T06:27:18.706Z,4.70
2019-02-08T06:29:46.233Z,4.70
2019-02-08T06:32:13.463Z,4.70
2019-02-08T06:34:41.371Z,4.70
2019-02-08T06:37:08.835Z,4.80
2019-02-08T06:39:36.063Z,4.80
2019-02-08T06:42:03.676Z,4.80
2019-02-08T06:44:31.011Z,4.80
2019-02-08T06:46:58.255Z,4.80
2019-02-08T06:49:25.494Z,4.80
2019-02-08T06:51:53.367Z,4.80
2019-02-08T06:54:20.596Z,4.70
2019-02-08T06:57:06.584Z,4.80
2019-02-08T06:59:47.900Z,4.80
2019-02-08T07:02:34.651Z,4.80
2019-02-08T07:05:27.281Z,4.80
2019-02-08T07:08:05.797Z,4.80
2019-02-08T07:10:48.012Z,4.90
2019-02-08T07:13:37.945Z,4.80
2019-02-08T07:16:13.856Z,4.80
2019-02-08T07:18:46.096Z,4.90
2019-02-08T07:21:27.532Z,4.70
2019-02-08T07:24:29.371Z,4.80
2019-02-08T07:27:18.912Z,4.90
2019-02-08T07:30:17.720Z,4.80
2019-02-08T07:33:13.555Z,4.80
2019-02-08T07:36:03.697Z,4.90
2019-02-08T07:38:43.772Z,5.00
2019-02-08T07:41:37.119Z,4.90
2019-02-08T07:44:14.483Z,5.00
2019-02-08T07:47:09.392Z,5.00
2019-02-08T07:49:54.596Z,4.90
2019-02-08T07:52:28.914Z,4.90
2019-02-08T07:55:33.999Z,5.00
2019-02-08T07:58:26.991Z,5.00
2019-02-08T08:01:20.708Z,5.00
2019-02-08T08:04:01.445Z,5.00
2019-02-08T08:06:55.243Z,5.10
2019-02-08T08:09:45.313Z,5.20
2019-02-08T08:12:21.187Z,5.10
2019-02-08T08:15:11.321Z,5.20
2019-02-08T08:17:56.751Z,5.20
2019-02-08T08:20:32.783Z,5.10
2019-02-08T08:23:19.109Z,5.20
2019-02-08T08:26:08.363Z,5.20
2019-02-08T08:28:58.167Z,5.20
2019-02-08T08:31:49.405Z,5.10
2019-02-08T08:35:11.933Z,5.30
2019-02-08T08:38:10.368Z,5.30
2019-02-08T08:41:34.676Z,5.40
2019-02-08T08:44:52.718Z,5.40
2019-02-08T08:48:00.334Z,5.50
2019-02-08T08:51:01.324Z,5.40
2019-02-08T08:53:56.757Z,5.50
2019-02-08T08:57:02.946Z,5.50
2019-02-08T09:00:15.880Z,5.40
2019-02-08T09:03:40.267Z,5.50
2019-02-08T09:06:38.877Z,5.50
2019-02-08T09:09:57.076Z,5.50
2019-02-08T09:12:57.996Z,5.60
2019-02-08T09:16:22.032Z,6.10
2019-02-08T09:19:32.577Z,6.10
2019-02-08T09:22:43.772Z,5.90
2019-02-08T09:25:55.737Z,6.00
2019-02-08T09:28:38.235Z,5.90
2019-02-08T09:31:40.103Z,6.10
2019-02-08T09:35:02.041Z,6.00
2019-02-08T09:38:05.876Z,5.90
2019-02-08T09:41:22.859Z,5.90
2019-02-08T09:44:19.432Z,6.00
2019-02-08T09:47:28.835Z,6.10
2019-02-08T09:50:42.573Z,6.10
2019-02-08T09:53:54.960Z,6.00
2019-02-08T09:57:12.113Z,6.10
2019-02-08T10:00:04.475Z,6.20
2019-02-08T10:03:27.559Z,6.30
2019-02-08T10:06:58.128Z,6.50
2019-02-08T10:10:15.971Z,6.50
2019-02-08T10:13:29.604Z,6.60
2019-02-08T10:16:28.412Z,6.50
2019-02-08T10:19:40.476Z,6.60
2019-02-08T10:22:44.255Z,6.60
2019-02-08T10:25:36.019Z,6.50
2019-02-08T10:29:18.612Z,6.70
2019-02-08T10:32:23.185Z,6.70
2019-02-08T10:35:27.335Z,6.70
2019-02-08T10:38:38.467Z,6.90
2019-02-08T10:42:07.381Z,7.00
2019-02-08T10:45:27.988Z,7.00
2019-02-08T10:48:32.187Z,6.90
2019-02-08T10:51:37.274Z,7.00
2019-02-08T10:54:38.792Z,7.00
2019-02-08T10:58:02.974Z,7.10
2019-02-08T11:01:14.957Z,6.90
2019-02-08T11:04:12.065Z,6.90
2019-02-08T11:07:32.357Z,6.90
2019-02-08T11:10:46.547Z,7.00
2019-02-08T11:13:41.049Z,6.90
2019-02-08T11:16:38.901Z,6.90
2019-02-08T11:19:18.445Z,6.90
2019-02-08T11:21:47.499Z,6.90
2019-02-08T11:24:17.095Z,7.00
2019-02-08T11:26:45.121Z,7.10
2019-02-08T11:29:12.445Z,7.20
2019-02-08T11:31:39.689Z,7.20
2019-02-08T11:34:07.060Z,7.20
2019-02-08T11:36:34.296Z,7.20
2019-02-08T11:39:02.463Z,7.10
2019-02-08T11:41:29.681Z,7.00
2019-02-08T11:43:57.022Z,7.10
2019-02-08T11:46:24.236Z,7.10
2019-02-08T11:48:51.460Z,7.20
2019-02-08T11:51:18.683Z,7.30
2019-02-08T11:53:45.904Z,7.30
2019-02-08T11:56:13.159Z,7.30
2019-02-08T11:58:40.427Z,7.40
2019-02-08T12:01:08.151Z,7.30
2019-02-08T12:03:35.463Z,7.40
2019-02-08T12:06:04.511Z,7.50
2019-02-08T12:08:31.891Z,7.50
2019-02-08T12:10:59.445Z,7.60
2019-02-08T12:13:26.729Z,7.50
2019-02-08T12:15:53.959Z,7.40
2019-02-08T12:18:21.183Z,7.40
2019-02-08T12:20:48.767Z,7.40
2019-02-08T12:23:16.089Z,7.50
2019-02-08T12:25:43.365Z,7.50
2019-02-08T12:28:11.024Z,7.50
2019-02-08T12:30:39.119Z,7.50
2019-02-08T12:33:06.455Z,7.60
2019-02-08T12:35:33.840Z,7.50
2019-02-08T12:38:01.167Z,7.50
2019-02-08T12:40:28.638Z,7.60
2019-02-08T12:42:55.871Z,7.50
2019-02-08T12:45:23.456Z,7.40
2019-02-08T12:47:50.689Z,7.30
2019-02-08T12:50:17.976Z,7.30
2019-02-08T12:52:45.195Z,7.30
2019-02-08T12:55:12.841Z,7.30
2019-02-08T12:57:40.148Z,7.40
2019-02-08T13:00:10.527Z,7.30
2019-02-08T13:02:37.840Z,7.30
2019-02-08T13:05:06.633Z,7.30
2019-02-08T13:07:33.849Z,7.30
2019-02-08T13:10:01.114Z,7.40
2019-02-08T13:12:28.336Z,7.50
2019-02-08T13:14:55.899Z,7.30
2019-02-08T13:17:23.151Z,7.30
2019-02-08T13:19:50.422Z,7.40
2019-02-08T13:22:17.639Z,7.20
2019-02-08T13:24:45.017Z,7.30
2019-02-08T13:27:12.437Z,7.30
2019-02-08T13:29:39.688Z,7.30
2019-02-08T13:32:06.919Z,7.30
2019-02-08T13:34:34.482Z,7.20
2019-02-08T13:37:01.970Z,7.30
2019-02-08T13:39:29.229Z,7.40
2019-02-08T13:41:56.480Z,7.40
2019-02-08T13:44:24.157Z,7.40
2019-02-08T13:46:51.999Z,7.50
2019-02-08T13:49:19.273Z,7.50
2019-02-08T13:51:46.505Z,7.50
2019-02-08T13:54:13.727Z,7.60
2019-02-08T13:56:41.046Z,7.70
2019-02-08T13:59:08.265Z,7.80
2019-02-08T14:01:35.500Z,7.90
2019-02-08T14:04:03.322Z,7.90
2019-02-08T14:06:30.535Z,7.90
2019-02-08T14:08:57.748Z,7.90
2019-02-08T14:11:24.963Z,7.80
2019-02-08T14:13:52.180Z,7.90
2019-02-08T14:16:19.401Z,8.00
2019-02-08T14:18:46.667Z,7.90
2019-02-08T14:21:13.888Z,8.00
2019-02-08T14:23:41.170Z,8.10
2019-02-08T14:26:08.397Z,8.00
2019-02-08T14:28:35.668Z,8.10
2019-02-08T14:31:03.158Z,8.20
2019-02-08T14:33:30.592Z,8.10
2019-02-08T14:35:57.809Z,8.10
2019-02-08T14:38:25.083Z,8.10
2019-02-08T14:40:52.384Z,8.10
2019-02-08T14:43:19.979Z,8.10
2019-02-08T14:45:47.205Z,8.00
2019-02-08T14:48:14.471Z,8.00
2019-02-08T14:50:41.688Z,7.90
2019-02-08T14:53:08.959Z,7.90
2019-02-08T14:55:36.183Z,7.90
2019-02-08T14:58:04.767Z,7.90
2019-02-08T15:00:32.315Z,7.90
2019-02-08T15:02:59.876Z,7.90
2019-02-08T15:05:27.424Z,7.80
2019-02-08T15:07:54.856Z,7.90
2019-02-08T15:10:24.556Z,7.80
2019-02-08T15:12:51.844Z,7.80
2019-02-08T15:15:19.079Z,7.80
2019-02-08T15:17:46.365Z,7.80
2019-02-08T15:20:17.247Z,7.80
2019-02-08T15:22:44.528Z,7.80
2019-02-08T15:25:11.979Z,7.90
2019-02-08T15:27:39.289Z,7.70
2019-02-08T15:30:08.821Z,7.70
2019-02-08T15:32:36.319Z,7.70
2019-02-08T15:35:04.995Z,7.80
2019-02-08T15:37:32.223Z,7.70
2019-02-08T15:39:59.469Z,7.80
2019-02-08T15:42:26.795Z,7.70
2019-02-08T15:44:54.348Z,7.60
2019-02-08T15:47:21.681Z,7.70
2019-02-08T15:49:49.016Z,7.60
2019-02-08T15:52:16.460Z,7.60
2019-02-08T15:54:44.003Z,7.60
2019-02-08T15:57:11.528Z,7.60
2019-02-08T15:59:38.743Z,7.60
2019-02-08T16:02:06.272Z,7.60
2019-02-08T16:04:33.763Z,7.50
2019-02-08T16:07:01.345Z,7.50
2019-02-08T16:09:28.636Z,7.50
2019-02-08T16:11:55.957Z,7.50
2019-02-08T16:14:23.243Z,7.50
2019-02-08T16:16:50.764Z,7.50
2019-02-08T16:19:18.180Z,7.50
2019-02-08T16:21:45.404Z,7.40
2019-02-08T16:24:12.679Z,7.50
2019-02-08T16:26:40.264Z,7.40
2019-02-08T16:29:07.854Z,7.40
2019-02-08T16:31:35.480Z,7.40
2019-02-08T16:34:02.754Z,7.40
2019-02-08T16:36:29.990Z,7.40
2019-02-08T16:38:57.286Z,7.30
2019-02-08T16:41:24.522Z,7.20
2019-02-08T16:43:51.795Z,7.20
2019-02-08T16:46:19.028Z,7.20
2019-02-08T16:48:46.630Z,7.10
2019-02-08T16:51:14.059Z,7.10
2019-02-08T16:53:41.288Z,7.10
2019-02-08T16:56:08.512Z,7.00
2019-02-08T16:58:35.738Z,7.00
2019-02-08T17:01:03.854Z,6.90
2019-02-08T17:03:31.096Z,6.90
2019-02-08T17:05:58.328Z,6.90
2019-02-08T17:08:25.889Z,6.90
2019-02-08T17:10:53.311Z,6.90
2019-02-08T17:13:20.545Z,7.00
2019-02-08T17:15:48.117Z,6.90
2019-02-08T17:18:15.744Z,6.90
2019-02-08T17:20:44.677Z,6.90
2019-02-08T17:23:11.906Z,6.80
2019-02-08T17:25:39.179Z,6.80
2019-02-08T17:28:08.150Z,6.80
2019-02-08T17:30:35.537Z,6.80
2019-02-08T17:33:03.274Z,6.90
2019-02-08T17:35:30.648Z,6.80
2019-02-08T17:37:57.877Z,6.90
2019-02-08T17:40:27.354Z,6.90
2019-02-08T17:42:54.586Z,6.90
2019-02-08T17:45:21.856Z,6.80
2019-02-08T17:47:49.287Z,6.90
2019-02-08T17:50:19.239Z,6.90
2019-02-08T17:52:46.553Z,6.80
2019-02-08T17:55:15.260Z,6.80
2019-02-08T17:57:42.491Z,6.80
2019-02-08T18:00:22.043Z,6.80
2019-02-08T18:02:49.608Z,6.80
2019-02-08T18:05:16.887Z,6.70
2019-02-08T18:07:44.112Z,6.70
2019-02-08T18:10:15.776Z,6.70
2019-02-08T18:12:43.021Z,6.80
2019-02-08T18:15:13.055Z,6.80
2019-02-08T18:17:40.587Z,6.80
2019-02-08T18:20:20.885Z,6.80
2019-02-08T18:22:48.118Z,6.70
2019-02-08T18:25:17.087Z,6.70
2019-02-08T18:27:44.329Z,6.60
2019-02-08T18:30:13.338Z,6.70
2019-02-08T18:32:40.890Z,6.70
2019-02-08T18:35:08.167Z,6.60
2019-02-08T18:37:35.404Z,6.60
2019-02-08T18:40:03.889Z,6.60
2019-02-08T18:42:31.124Z,6.60
2019-02-08T18:44:58.356Z,6.50
2019-02-08T18:47:25.949Z,6.60
2019-02-08T18:49:53.622Z,6.60
2019-02-08T18:52:20.935Z,6.60
2019-02-08T18:54:48.537Z,6.50
2019-02-08T18:57:15.754Z,6.50
2019-02-08T18:59:43.059Z,6.50
2019-02-08T19:02:10.281Z,6.50
2019-02-08T19:04:37.554Z,6.60
2019-02-08T19:07:05.067Z,6.60
2019-02-08T19:09:32.664Z,6.60
2019-02-08T19:12:00.138Z,6.50
2019-02-08T19:14:27.613Z,6.60
2019-02-08T19:16:55.082Z,6.60
2019-02-08T19:19:22.599Z,6.60
2019-02-08T19:21:51.114Z,6.50
2019-02-08T19:24:18.535Z,6.50
2019-02-08T19:26:45.844Z,6.40
2019-02-08T19:29:13.067Z,6.50
2019-02-08T19:31:40.667Z,6.50
2019-02-08T19:34:08.227Z,6.50
2019-02-08T19:36:35.791Z,6.50
2019-02-08T19:39:05.812Z,6.50
2019-02-08T19:41:33.359Z,6.60
2019-02-08T19:44:00.665Z,6.60
2019-02-08T19:46:27.939Z,6.60
2019-02-08T19:48:55.161Z,6.40
2019-02-08T19:51:22.428Z,6.40
2019-02-08T19:53:50.056Z,6.50
2019-02-08T19:56:17.596Z,6.60
2019-02-08T19:58:44.811Z,6.60
2019-02-08T20:01:12.119Z,6.60
2019-02-08T20:03:39.816Z,6.60
2019-02-08T20:06:07.720Z,6.50
2019-02-08T20:08:34.940Z,6.50
2019-02-08T20:11:02.193Z,6.50
2019-02-08T20:13:29.524Z,6.40
2019-02-08T20:15:56.747Z,6.40
2019-02-08T20:18:24.293Z,6.40
2019-02-08T20:20:51.517Z,6.40
2019-02-08T20:23:18.795Z,6.30
2019-02-08T20:25:46.387Z,6.30
2019-02-08T20:28:13.892Z,6.30
2019-02-08T20:30:41.478Z,6.30
2019-02-08T20:33:08.818Z,6.30
2019-02-08T20:35:36.032Z,6.30
2019-02-08T20:38:04.689Z,6.30
2019-02-08T20:40:43.248Z,6.30
2019-02-08T20:43:10.892Z,6.30
2019-02-08T20:45:38.318Z,6.30
2019-02-08T20:48:08.524Z,6.30
2019-02-08T20:50:35.736Z,6.20
2019-02-08T20:53:03.810Z,6.20
2019-02-08T20:55:31.044Z,6.10
2019-02-08T20:57:58.312Z,6.20
2019-02-08T21:00:34.962Z,6.10
2019-02-08T21:03:04.115Z,6.10
2019-02-08T21:05:31.294Z,6.20
2019-02-08T21:07:59.112Z,6.20
2019-02-08T21:10:26.835Z,6.20
2019-02-08T21:12:54.132Z,6.10
2019-02-08T21:15:21.588Z,6.10
2019-02-08T21:17:49.155Z,6.10
2019-02-08T21:20:16.695Z,6.10
2019-02-08T21:22:44.324Z,6.20
2019-02-08T21:25:13.727Z,6.20
2019-02-08T21:27:41.012Z,6.20
2019-02-08T21:30:10.587Z,6.30
2019-02-08T21:32:37.859Z,6.30
2019-02-08T21:35:05.820Z,6.20
2019-02-08T21:37:33.103Z,6.20
2019-02-08T21:40:00.324Z,6.20
2019-02-08T21:42:27.588Z,6.10
2019-02-08T21:44:55.170Z,6.10
2019-02-08T21:47:22.440Z,6.30
2019-02-08T21:49:50.004Z,6.30
2019-02-08T21:52:17.276Z,6.30
2019-02-08T21:54:44.495Z,6.30
2019-02-08T21:57:11.738Z,6.40
2019-02-08T21:59:39.047Z,6.40
2019-02-08T22:02:06.568Z,6.50
2019-02-08T22:04:34.107Z,6.50
2019-02-08T22:07:01.751Z,6.50
2019-02-08T22:09:28.979Z,6.50
2019-02-08T22:11:56.192Z,6.50
2019-02-08T22:14:23.478Z,6.50
2019-02-08T22:16:50.747Z,6.50
2019-02-08T22:19:17.959Z,6.70
2019-02-08T22:21:45.284Z,6.70
2019-02-08T22:24:12.508Z,6.70
2019-02-08T22:26:39.725Z,6.70
2019-02-08T22:29:13.939Z,6.80
2019-02-08T22:31:37.845Z,6.70
2019-02-08T22:34:05.124Z,6.80
2019-02-08T22:36:32.779Z,6.80
2019-02-08T22:39:00.006Z,6.80
2019-02-08T22:41:27.223Z,6.80
2019-02-08T22:43:54.448Z,6.80
2019-02-08T22:46:21.916Z,6.80
2019-02-08T22:48:49.140Z,6.80
2019-02-08T22:51:16.364Z,6.80
2019-02-08T22:53:43.583Z,6.80
2019-02-08T22:56:11.032Z,6.80
2019-02-08T22:58:38.358Z,6.80
2019-02-08T23:01:30.031Z,6.90
2019-02-08T23:03:59.124Z,6.90
2019-02-08T23:06:26.467Z,6.90
2019-02-08T23:08:53.789Z,6.90
2019-02-08T23:11:21.542Z,6.90
2019-02-08T23:13:48.792Z,6.90
2019-02-08T23:16:16.008Z,6.90
2019-02-08T23:18:43.239Z,6.90
2019-02-08T23:21:10.454Z,6.90
2019-02-08T23:23:37.809Z,7.00
2019-02-08T23:26:05.535Z,6.90
2019-02-08T23:28:32.804Z,6.90
2019-02-08T23:31:00.027Z,7.00
2019-02-08T23:33:27.639Z,7.00
2019-02-08T23:35:54.988Z,7.00
2019-02-08T23:38:22.231Z,7.00
2019-02-08T23:40:49.476Z,7.00
2019-02-08T23:43:16.710Z,7.00
2019-02-08T23:45:44.030Z,6.90
2019-02-08T23:48:11.363Z,7.00
2019-02-08T23:50:39.236Z,6.90
2019-02-08T23:53:07.348Z,7.00
2019-02-08T23:55:34.568Z,7.10
2019-02-08T23:58:03.119Z,7.00
